Terminal Aerodrome Forecast
Issued by NWS Missoula, MT

Home | Current Version | Previous Version | Text Only | Print | Product List | Glossary On
Versions: 1 2 3 4 5 6 7 8 9 10 11 12 13 14 15 16 17 18
000
FTUS45 KMSO 211740
TAFGPI
TAF
KGPI 211740Z 2118/2218 VRB03KT 3SM BR BKN050 OVC080
     FM212100 18005KT 5SM BR OVC060
     FM220100 VRB05KT 3SM -SN BR BKN007 OVC010
     FM221400 00000KT 4SM BR OVC010=

USA.gov is the U.S. government's official web portal to all federal, state and local government web resources and services.